Terminal Aerodrome Forecast
Issued by NWS Shreveport, LA

Home | Current Version | Previous Version | Text Only | Print | Product List | Glossary On
Versions: 1 2 3 4 5 6 7 8 9 10 11 12 13 14 15 16 17 18 19 20 21
000
FTUS44 KSHV 231300 AAA
TAFSHV
TAF AMD
KSHV 231312Z 2313/2412 10003KT 6SM BR FEW060
     FM231400 15007KT P6SM FEW040
     FM240000 15006KT P6SM FEW250
     FM241000 18006KT P6SM SCT025=

USA.gov is the U.S. government's official web portal to all federal, state and local government web resources and services.